sensor_id;sensor_type;location;lat;lon;timestamp;P1;durP1;ratioP1;P2;durP2;ratioP2
50631;SDS011;49583;45.590;-122.498;2022-12-18T00:00:40;15.20;;;11.30;;
50631;SDS011;49583;45.590;-122.498;2022-12-18T00:03:12;15.30;;;11.90;;
50631;SDS011;49583;45.590;-122.498;2022-12-18T00:05:24;20.60;;;12.90;;
50631;SDS011;49583;45.590;-122.498;2022-12-18T00:07:33;14.90;;;11.60;;
50631;SDS011;49583;45.590;-122.498;2022-12-18T00:09:45;20.70;;;12.80;;
50631;SDS011;49583;45.590;-122.498;2022-12-18T00:11:55;18.40;;;12.10;;
50631;SDS011;49583;45.590;-122.498;2022-12-18T00:14:20;20.00;;;11.80;;
50631;SDS011;49583;45.590;-122.498;2022-12-18T00:16:30;17.70;;;12.50;;
50631;SDS011;49583;45.590;-122.498;2022-12-18T00:18:41;13.80;;;10.30;;
50631;SDS011;49583;45.590;-122.498;2022-12-18T00:20:51;15.30;;;11.20;;
50631;SDS011;49583;45.590;-122.498;2022-12-18T00:23:01;15.20;;;10.80;;
50631;SDS011;49583;45.590;-122.498;2022-12-18T00:25:12;14.50;;;10.60;;
50631;SDS011;49583;45.590;-122.498;2022-12-18T00:27:22;28.60;;;17.70;;
50631;SDS011;49583;45.590;-122.498;2022-12-18T00:29:32;23.00;;;15.00;;
50631;SDS011;49583;45.590;-122.498;2022-12-18T00:31:43;22.20;;;16.20;;
50631;SDS011;49583;45.590;-122.498;2022-12-18T00:33:53;23.30;;;15.50;;
50631;SDS011;49583;45.590;-122.498;2022-12-18T00:36:05;20.90;;;13.90;;
50631;SDS011;49583;45.590;-122.498;2022-12-18T00:38:16;16.50;;;12.00;;
50631;SDS011;49583;45.590;-122.498;2022-12-18T00:40:27;19.70;;;12.80;;
50631;SDS011;49583;45.590;-122.498;2022-12-18T00:42:37;16.40;;;12.00;;
50631;SDS011;49583;45.590;-122.498;2022-12-18T00:45:05;14.60;;;11.30;;
50631;SDS011;49583;45.590;-122.498;2022-12-18T00:47:17;12.60;;;10.90;;
50631;SDS011;49583;45.590;-122.498;2022-12-18T00:49:28;20.30;;;11.60;;
50631;SDS011;49583;45.590;-122.498;2022-12-18T00:51:37;14.30;;;11.50;;
50631;SDS011;49583;45.590;-122.498;2022-12-18T00:53:49;16.20;;;11.90;;
50631;SDS011;49583;45.590;-122.498;2022-12-18T00:55:59;14.50;;;10.30;;
50631;SDS011;49583;45.590;-122.498;2022-12-18T00:58:09;13.20;;;11.00;;
50631;SDS011;49583;45.590;-122.498;2022-12-18T01:00:20;19.10;;;12.00;;
50631;SDS011;49583;45.590;-122.498;2022-12-18T01:02:31;15.90;;;10.80;;
50631;SDS011;49583;45.590;-122.498;2022-12-18T01:04:41;17.30;;;10.70;;
50631;SDS011;49583;45.590;-122.498;2022-12-18T01:06:51;15.10;;;10.90;;
50631;SDS011;49583;45.590;-122.498;2022-12-18T01:09:00;15.30;;;10.30;;
50631;SDS011;49583;45.590;-122.498;2022-12-18T01:11:15;13.70;;;10.20;;
50631;SDS011;49583;45.590;-122.498;2022-12-18T01:13:26;21.40;;;10.60;;
50631;SDS011;49583;45.590;-122.498;2022-12-18T01:15:37;17.30;;;9.20;;
50631;SDS011;49583;45.590;-122.498;2022-12-18T01:17:49;15.30;;;10.40;;
50631;SDS011;49583;45.590;-122.498;2022-12-18T01:20:00;12.80;;;9.30;;
50631;SDS011;49583;45.590;-122.498;2022-12-18T01:22:11;15.20;;;10.20;;
50631;SDS011;49583;45.590;-122.498;2022-12-18T01:24:22;14.30;;;9.70;;
50631;SDS011;49583;45.590;-122.498;2022-12-18T01:26:31;16.60;;;10.50;;
50631;SDS011;49583;45.590;-122.498;2022-12-18T01:28:42;13.00;;;9.50;;
50631;SDS011;49583;45.590;-122.498;2022-12-18T01:30:51;13.50;;;9.00;;
50631;SDS011;49583;45.590;-122.498;2022-12-18T01:33:01;13.60;;;9.40;;
50631;SDS011;49583;45.590;-122.498;2022-12-18T01:35:13;13.60;;;9.40;;
50631;SDS011;49583;45.590;-122.498;2022-12-18T01:37:24;17.10;;;8.20;;
50631;SDS011;49583;45.590;-122.498;2022-12-18T01:39:34;16.00;;;10.50;;
50631;SDS011;49583;45.590;-122.498;2022-12-18T01:41:44;15.00;;;10.30;;
50631;SDS011;49583;45.590;-122.498;2022-12-18T01:46:49;15.70;;;10.10;;
50631;SDS011;49583;45.590;-122.498;2022-12-18T01:48:59;14.00;;;10.40;;
50631;SDS011;49583;45.590;-122.498;2022-12-18T01:51:10;12.10;;;8.30;;
50631;SDS011;49583;45.590;-122.498;2022-12-18T01:53:21;16.20;;;10.20;;
50631;SDS011;49583;45.590;-122.498;2022-12-18T01:55:34;14.00;;;8.70;;
50631;SDS011;49583;45.590;-122.498;2022-12-18T01:57:48;14.10;;;10.30;;
50631;SDS011;49583;45.590;-122.498;2022-12-18T02:00:02;14.10;;;9.60;;
50631;SDS011;49583;45.590;-122.498;2022-12-18T02:02:19;15.80;;;11.60;;
50631;SDS011;49583;45.590;-122.498;2022-12-18T02:04:30;18.20;;;10.80;;
50631;SDS011;49583;45.590;-122.498;2022-12-18T02:06:40;13.80;;;10.60;;
50631;SDS011;49583;45.590;-122.498;2022-12-18T02:09:01;16.00;;;10.70;;
50631;SDS011;49583;45.590;-122.498;2022-12-18T02:11:17;10.50;;;8.00;;
50631;SDS011;49583;45.590;-122.498;2022-12-18T02:13:36;14.00;;;10.00;;
50631;SDS011;49583;45.590;-122.498;2022-12-18T02:15:57;13.50;;;10.40;;
50631;SDS011;49583;45.590;-122.498;2022-12-18T02:18:14;15.10;;;9.90;;
50631;SDS011;49583;45.590;-122.498;2022-12-18T02:20:30;16.00;;;10.40;;
50631;SDS011;49583;45.590;-122.498;2022-12-18T02:22:46;14.50;;;9.90;;
50631;SDS011;49583;45.590;-122.498;2022-12-18T02:25:12;18.00;;;10.60;;
50631;SDS011;49583;45.590;-122.498;2022-12-18T02:27:29;14.80;;;10.20;;
50631;SDS011;49583;45.590;-122.498;2022-12-18T02:29:44;14.80;;;10.20;;
50631;SDS011;49583;45.590;-122.498;2022-12-18T02:32:06;15.60;;;10.70;;
50631;SDS011;49583;45.590;-122.498;2022-12-18T02:34:21;14.80;;;10.00;;
50631;SDS011;49583;45.590;-122.498;2022-12-18T02:36:35;19.60;;;11.10;;
50631;SDS011;49583;45.590;-122.498;2022-12-18T02:38:47;11.20;;;8.80;;
50631;SDS011;49583;45.590;-122.498;2022-12-18T02:40:59;19.20;;;11.80;;
50631;SDS011;49583;45.590;-122.498;2022-12-18T02:43:09;17.10;;;11.50;;
50631;SDS011;49583;45.590;-122.498;2022-12-18T02:45:22;18.70;;;11.70;;
50631;SDS011;49583;45.590;-122.498;2022-12-18T02:47:32;19.80;;;12.60;;
50631;SDS011;49583;45.590;-122.498;2022-12-18T02:49:48;17.20;;;12.40;;
50631;SDS011;49583;45.590;-122.498;2022-12-18T02:52:10;17.40;;;12.00;;
50631;SDS011;49583;45.590;-122.498;2022-12-18T02:54:31;21.50;;;19.30;;
50631;SDS011;49583;45.590;-122.498;2022-12-18T02:56:50;17.30;;;14.30;;
50631;SDS011;49583;45.590;-122.498;2022-12-18T02:59:04;17.90;;;13.50;;
50631;SDS011;49583;45.590;-122.498;2022-12-18T03:01:26;20.40;;;13.20;;
50631;SDS011;49583;45.590;-122.498;2022-12-18T03:03:41;18.70;;;12.20;;
50631;SDS011;49583;45.590;-122.498;2022-12-18T03:05:55;19.60;;;11.10;;
50631;SDS011;49583;45.590;-122.498;2022-12-18T03:08:07;17.00;;;11.80;;
50631;SDS011;49583;45.590;-122.498;2022-12-18T03:10:23;18.30;;;11.80;;
50631;SDS011;49583;45.590;-122.498;2022-12-18T03:12:38;19.30;;;12.20;;
50631;SDS011;49583;45.590;-122.498;2022-12-18T03:14:53;21.70;;;12.50;;
50631;SDS011;49583;45.590;-122.498;2022-12-18T03:17:07;20.30;;;13.20;;
50631;SDS011;49583;45.590;-122.498;2022-12-18T03:19:24;19.30;;;11.80;;
50631;SDS011;49583;45.590;-122.498;2022-12-18T03:21:37;17.30;;;12.00;;
50631;SDS011;49583;45.590;-122.498;2022-12-18T03:23:53;16.40;;;11.40;;
50631;SDS011;49583;45.590;-122.498;2022-12-18T03:26:05;25.80;;;12.80;;
50631;SDS011;49583;45.590;-122.498;2022-12-18T03:28:19;25.40;;;13.80;;
50631;SDS011;49583;45.590;-122.498;2022-12-18T03:30:35;28.00;;;14.60;;
50631;SDS011;49583;45.590;-122.498;2022-12-18T03:32:48;20.40;;;12.90;;
50631;SDS011;49583;45.590;-122.498;2022-12-18T03:35:05;22.50;;;13.50;;
50631;SDS011;49583;45.590;-122.498;2022-12-18T03:37:18;18.70;;;12.70;;
50631;SDS011;49583;45.590;-122.498;2022-12-18T03:39:30;26.50;;;15.00;;
50631;SDS011;49583;45.590;-122.498;2022-12-18T03:41:43;24.40;;;13.00;;
50631;SDS011;49583;45.590;-122.498;2022-12-18T03:44:07;19.60;;;13.50;;
50631;SDS011;49583;45.590;-122.498;2022-12-18T03:46:26;27.20;;;14.00;;
50631;SDS011;49583;45.590;-122.498;2022-12-18T03:48:43;20.10;;;13.40;;
50631;SDS011;49583;45.590;-122.498;2022-12-18T03:50:57;20.00;;;12.30;;
50631;SDS011;49583;45.590;-122.498;2022-12-18T03:53:18;20.00;;;13.10;;
50631;SDS011;49583;45.590;-122.498;2022-12-18T03:55:34;19.50;;;11.80;;
50631;SDS011;49583;45.590;-122.498;2022-12-18T03:57:45;17.00;;;12.20;;
50631;SDS011;49583;45.590;-122.498;2022-12-18T03:59:57;18.90;;;11.70;;
50631;SDS011;49583;45.590;-122.498;2022-12-18T04:02:18;22.40;;;15.30;;
50631;SDS011;49583;45.590;-122.498;2022-12-18T04:04:32;22.30;;;14.30;;
50631;SDS011;49583;45.590;-122.498;2022-12-18T04:06:45;26.90;;;12.30;;
50631;SDS011;49583;45.590;-122.498;2022-12-18T04:11:07;19.60;;;10.50;;
50631;SDS011;49583;45.590;-122.498;2022-12-18T04:13:23;17.30;;;10.10;;
50631;SDS011;49583;45.590;-122.498;2022-12-18T04:15:37;14.00;;;9.20;;
50631;SDS011;49583;45.590;-122.498;2022-12-18T04:17:50;22.30;;;13.40;;
50631;SDS011;49583;45.590;-122.498;2022-12-18T04:20:01;23.10;;;21.00;;
50631;SDS011;49583;45.590;-122.498;2022-12-18T04:22:13;24.90;;;18.90;;
50631;SDS011;49583;45.590;-122.498;2022-12-18T04:24:25;19.40;;;14.10;;
50631;SDS011;49583;45.590;-122.498;2022-12-18T04:26:47;18.50;;;11.60;;
50631;SDS011;49583;45.590;-122.498;2022-12-18T04:29:03;23.70;;;11.70;;
50631;SDS011;49583;45.590;-122.498;2022-12-18T04:31:13;20.60;;;11.10;;
50631;SDS011;49583;45.590;-122.498;2022-12-18T04:33:25;16.90;;;9.90;;
50631;SDS011;49583;45.590;-122.498;2022-12-18T04:35:35;14.90;;;10.30;;
50631;SDS011;49583;45.590;-122.498;2022-12-18T04:37:45;19.00;;;10.80;;
50631;SDS011;49583;45.590;-122.498;2022-12-18T04:39:55;16.00;;;10.20;;
50631;SDS011;49583;45.590;-122.498;2022-12-18T04:42:11;17.40;;;10.40;;
50631;SDS011;49583;45.590;-122.498;2022-12-18T04:44:21;19.00;;;10.50;;
50631;SDS011;49583;45.590;-122.498;2022-12-18T04:46:31;18.00;;;15.60;;
50631;SDS011;49583;45.590;-122.498;2022-12-18T04:48:41;20.70;;;14.90;;
50631;SDS011;49583;45.590;-122.498;2022-12-18T04:50:52;16.80;;;10.50;;
50631;SDS011;49583;45.590;-122.498;2022-12-18T04:53:02;14.60;;;12.00;;
50631;SDS011;49583;45.590;-122.498;2022-12-18T04:55:12;15.70;;;8.80;;
50631;SDS011;49583;45.590;-122.498;2022-12-18T04:57:22;14.60;;;9.90;;
50631;SDS011;49583;45.590;-122.498;2022-12-18T04:59:32;17.00;;;10.30;;
50631;SDS011;49583;45.590;-122.498;2022-12-18T05:01:41;13.30;;;9.40;;
50631;SDS011;49583;45.590;-122.498;2022-12-18T05:03:52;14.70;;;9.50;;
50631;SDS011;49583;45.590;-122.498;2022-12-18T05:06:02;15.50;;;9.00;;
50631;SDS011;49583;45.590;-122.498;2022-12-18T05:08:12;16.10;;;9.00;;
50631;SDS011;49583;45.590;-122.498;2022-12-18T05:10:22;15.00;;;9.40;;
50631;SDS011;49583;45.590;-122.498;2022-12-18T05:12:33;17.10;;;10.40;;
50631;SDS011;49583;45.590;-122.498;2022-12-18T05:15:06;17.50;;;9.70;;
50631;SDS011;49583;45.590;-122.498;2022-12-18T05:17:17;17.80;;;9.10;;
50631;SDS011;49583;45.590;-122.498;2022-12-18T05:19:27;14.90;;;9.50;;
50631;SDS011;49583;45.590;-122.498;2022-12-18T05:21:37;13.70;;;9.20;;
50631;SDS011;49583;45.590;-122.498;2022-12-18T05:23:47;13.00;;;9.70;;
50631;SDS011;49583;45.590;-122.498;2022-12-18T05:25:57;12.20;;;9.90;;
50631;SDS011;49583;45.590;-122.498;2022-12-18T05:28:09;18.20;;;14.00;;
50631;SDS011;49583;45.590;-122.498;2022-12-18T05:30:19;18.10;;;10.50;;
50631;SDS011;49583;45.590;-122.498;2022-12-18T05:32:29;19.60;;;12.20;;
50631;SDS011;49583;45.590;-122.498;2022-12-18T05:34:39;16.90;;;11.20;;
50631;SDS011;49583;45.590;-122.498;2022-12-18T05:36:48;15.50;;;10.90;;
50631;SDS011;49583;45.590;-122.498;2022-12-18T05:38:58;14.70;;;9.70;;
50631;SDS011;49583;45.590;-122.498;2022-12-18T05:41:11;14.20;;;9.10;;
50631;SDS011;49583;45.590;-122.498;2022-12-18T05:43:22;17.20;;;9.80;;
50631;SDS011;49583;45.590;-122.498;2022-12-18T05:45:32;15.00;;;10.50;;
50631;SDS011;49583;45.590;-122.498;2022-12-18T05:47:43;18.10;;;10.50;;
50631;SDS011;49583;45.590;-122.498;2022-12-18T05:49:53;16.60;;;10.20;;
50631;SDS011;49583;45.590;-122.498;2022-12-18T05:52:03;16.80;;;10.40;;
50631;SDS011;49583;45.590;-122.498;2022-12-18T05:54:12;15.00;;;9.90;;
50631;SDS011;49583;45.590;-122.498;2022-12-18T05:56:22;14.10;;;9.50;;
50631;SDS011;49583;45.590;-122.498;2022-12-18T05:58:32;17.00;;;9.50;;
50631;SDS011;49583;45.590;-122.498;2022-12-18T06:00:42;14.30;;;9.90;;
50631;SDS011;49583;45.590;-122.498;2022-12-18T06:02:53;18.90;;;10.80;;
50631;SDS011;49583;45.590;-122.498;2022-12-18T06:05:03;15.00;;;11.00;;
50631;SDS011;49583;45.590;-122.498;2022-12-18T06:07:14;18.60;;;10.50;;
50631;SDS011;49583;45.590;-122.498;2022-12-18T06:09:24;16.50;;;10.20;;
50631;SDS011;49583;45.590;-122.498;2022-12-18T06:11:34;17.80;;;10.40;;
50631;SDS011;49583;45.590;-122.498;2022-12-18T06:13:45;15.50;;;10.70;;
50631;SDS011;49583;45.590;-122.498;2022-12-18T06:16:03;15.20;;;10.10;;
50631;SDS011;49583;45.590;-122.498;2022-12-18T06:18:14;12.80;;;9.80;;
50631;SDS011;49583;45.590;-122.498;2022-12-18T06:20:24;19.30;;;10.50;;
50631;SDS011;49583;45.590;-122.498;2022-12-18T06:22:39;17.90;;;9.90;;
50631;SDS011;49583;45.590;-122.498;2022-12-18T06:24:49;16.70;;;9.80;;
50631;SDS011;49583;45.590;-122.498;2022-12-18T06:26:59;15.60;;;9.90;;
50631;SDS011;49583;45.590;-122.498;2022-12-18T06:29:09;13.50;;;9.50;;
50631;SDS011;49583;45.590;-122.498;2022-12-18T06:31:19;15.00;;;9.50;;
50631;SDS011;49583;45.590;-122.498;2022-12-18T06:33:28;13.80;;;8.90;;
50631;SDS011;49583;45.590;-122.498;2022-12-18T06:35:39;11.60;;;8.40;;
50631;SDS011;49583;45.590;-122.498;2022-12-18T06:37:49;13.40;;;9.60;;
50631;SDS011;49583;45.590;-122.498;2022-12-18T06:39:59;14.90;;;9.40;;
50631;SDS011;49583;45.590;-122.498;2022-12-18T06:42:09;16.90;;;9.60;;
50631;SDS011;49583;45.590;-122.498;2022-12-18T06:44:19;18.30;;;11.90;;
50631;SDS011;49583;45.590;-122.498;2022-12-18T06:46:30;14.10;;;10.60;;
50631;SDS011;49583;45.590;-122.498;2022-12-18T06:48:39;14.00;;;9.60;;
50631;SDS011;49583;45.590;-122.498;2022-12-18T06:50:49;15.10;;;10.00;;
50631;SDS011;49583;45.590;-122.498;2022-12-18T06:52:59;19.60;;;11.70;;
50631;SDS011;49583;45.590;-122.498;2022-12-18T06:55:09;18.50;;;10.70;;
50631;SDS011;49583;45.590;-122.498;2022-12-18T06:57:19;17.20;;;11.10;;
50631;SDS011;49583;45.590;-122.498;2022-12-18T06:59:29;15.80;;;11.20;;
50631;SDS011;49583;45.590;-122.498;2022-12-18T07:01:39;19.80;;;14.90;;
50631;SDS011;49583;45.590;-122.498;2022-12-18T07:03:53;17.90;;;11.20;;
50631;SDS011;49583;45.590;-122.498;2022-12-18T07:06:04;14.70;;;10.30;;
50631;SDS011;49583;45.590;-122.498;2022-12-18T07:08:20;20.70;;;10.50;;
50631;SDS011;49583;45.590;-122.498;2022-12-18T07:10:30;12.00;;;9.50;;
50631;SDS011;49583;45.590;-122.498;2022-12-18T07:12:40;11.60;;;9.20;;
50631;SDS011;49583;45.590;-122.498;2022-12-18T07:14:51;14.30;;;8.70;;
50631;SDS011;49583;45.590;-122.498;2022-12-18T07:17:01;25.30;;;10.70;;
50631;SDS011;49583;45.590;-122.498;2022-12-18T07:19:11;15.10;;;10.30;;
50631;SDS011;49583;45.590;-122.498;2022-12-18T07:21:21;16.70;;;9.40;;
50631;SDS011;49583;45.590;-122.498;2022-12-18T07:23:33;13.30;;;9.60;;
50631;SDS011;49583;45.590;-122.498;2022-12-18T07:25:44;12.80;;;9.50;;
50631;SDS011;49583;45.590;-122.498;2022-12-18T07:27:55;18.20;;;10.80;;
50631;SDS011;49583;45.590;-122.498;2022-12-18T07:30:06;15.00;;;10.90;;
50631;SDS011;49583;45.590;-122.498;2022-12-18T07:32:18;18.00;;;11.10;;
50631;SDS011;49583;45.590;-122.498;2022-12-18T07:34:28;15.90;;;10.10;;
50631;SDS011;49583;45.590;-122.498;2022-12-18T07:36:38;16.30;;;10.20;;
50631;SDS011;49583;45.590;-122.498;2022-12-18T07:38:48;11.80;;;9.20;;
50631;SDS011;49583;45.590;-122.498;2022-12-18T07:41:02;16.50;;;9.90;;
50631;SDS011;49583;45.590;-122.498;2022-12-18T07:43:13;16.50;;;10.60;;
50631;SDS011;49583;45.590;-122.498;2022-12-18T07:45:23;14.60;;;9.60;;
50631;SDS011;49583;45.590;-122.498;2022-12-18T07:47:35;17.90;;;10.20;;
50631;SDS011;49583;45.590;-122.498;2022-12-18T07:49:46;11.70;;;10.50;;
50631;SDS011;49583;45.590;-122.498;2022-12-18T07:51:57;17.80;;;9.50;;
50631;SDS011;49583;45.590;-122.498;2022-12-18T07:54:07;12.60;;;9.70;;
50631;SDS011;49583;45.590;-122.498;2022-12-18T07:56:17;20.30;;;11.30;;
50631;SDS011;49583;45.590;-122.498;2022-12-18T07:58:33;18.20;;;10.20;;
50631;SDS011;49583;45.590;-122.498;2022-12-18T08:00:43;17.30;;;10.20;;
50631;SDS011;49583;45.590;-122.498;2022-12-18T08:02:53;13.80;;;9.50;;
50631;SDS011;49583;45.590;-122.498;2022-12-18T08:05:03;16.20;;;9.60;;
50631;SDS011;49583;45.590;-122.498;2022-12-18T08:07:13;18.60;;;10.30;;
50631;SDS011;49583;45.590;-122.498;2022-12-18T08:09:24;15.20;;;9.80;;
50631;SDS011;49583;45.590;-122.498;2022-12-18T08:11:33;13.60;;;9.30;;
50631;SDS011;49583;45.590;-122.498;2022-12-18T08:13:43;17.30;;;10.20;;
50631;SDS011;49583;45.590;-122.498;2022-12-18T08:15:57;18.80;;;9.90;;
50631;SDS011;49583;45.590;-122.498;2022-12-18T08:18:08;17.10;;;9.50;;
50631;SDS011;49583;45.590;-122.498;2022-12-18T08:20:19;18.80;;;10.50;;
50631;SDS011;49583;45.590;-122.498;2022-12-18T08:22:29;19.70;;;10.50;;
50631;SDS011;49583;45.590;-122.498;2022-12-18T08:24:48;25.10;;;10.90;;
50631;SDS011;49583;45.590;-122.498;2022-12-18T08:26:58;18.80;;;10.90;;
50631;SDS011;49583;45.590;-122.498;2022-12-18T08:29:28;12.90;;;8.80;;
50631;SDS011;49583;45.590;-122.498;2022-12-18T08:31:39;14.10;;;9.20;;
50631;SDS011;49583;45.590;-122.498;2022-12-18T08:33:50;13.20;;;8.90;;
50631;SDS011;49583;45.590;-122.498;2022-12-18T08:36:01;15.80;;;10.30;;
50631;SDS011;49583;45.590;-122.498;2022-12-18T08:38:12;14.00;;;10.20;;
50631;SDS011;49583;45.590;-122.498;2022-12-18T08:40:22;15.50;;;9.00;;
50631;SDS011;49583;45.590;-122.498;2022-12-18T08:42:32;18.70;;;9.50;;
50631;SDS011;49583;45.590;-122.498;2022-12-18T08:45:00;12.90;;;9.30;;
50631;SDS011;49583;45.590;-122.498;2022-12-18T08:47:11;16.10;;;10.20;;
50631;SDS011;49583;45.590;-122.498;2022-12-18T08:49:20;22.50;;;11.20;;
50631;SDS011;49583;45.590;-122.498;2022-12-18T08:51:30;17.20;;;9.90;;
50631;SDS011;49583;45.590;-122.498;2022-12-18T08:53:40;15.20;;;9.90;;
50631;SDS011;49583;45.590;-122.498;2022-12-18T08:55:51;17.40;;;10.30;;
50631;SDS011;49583;45.590;-122.498;2022-12-18T08:58:01;17.20;;;10.10;;
50631;SDS011;49583;45.590;-122.498;2022-12-18T09:00:12;12.40;;;9.70;;
50631;SDS011;49583;45.590;-122.498;2022-12-18T09:02:23;12.80;;;9.70;;
50631;SDS011;49583;45.590;-122.498;2022-12-18T09:04:33;11.20;;;9.60;;
50631;SDS011;49583;45.590;-122.498;2022-12-18T09:06:43;18.50;;;10.70;;
50631;SDS011;49583;45.590;-122.498;2022-12-18T09:08:52;11.00;;;9.20;;
50631;SDS011;49583;45.590;-122.498;2022-12-18T09:11:04;12.20;;;9.70;;
50631;SDS011;49583;45.590;-122.498;2022-12-18T09:13:22;14.40;;;10.20;;
50631;SDS011;49583;45.590;-122.498;2022-12-18T09:15:32;13.70;;;9.90;;
50631;SDS011;49583;45.590;-122.498;2022-12-18T09:17:47;15.30;;;9.60;;
50631;SDS011;49583;45.590;-122.498;2022-12-18T09:19:58;15.80;;;9.70;;
50631;SDS011;49583;45.590;-122.498;2022-12-18T09:22:08;14.70;;;9.90;;
50631;SDS011;49583;45.590;-122.498;2022-12-18T09:24:17;14.00;;;8.70;;
50631;SDS011;49583;45.590;-122.498;2022-12-18T09:26:27;14.00;;;9.70;;
50631;SDS011;49583;45.590;-122.498;2022-12-18T09:28:36;13.40;;;9.10;;
50631;SDS011;49583;45.590;-122.498;2022-12-18T09:30:47;10.30;;;9.20;;
50631;SDS011;49583;45.590;-122.498;2022-12-18T09:32:57;13.60;;;9.30;;
50631;SDS011;49583;45.590;-122.498;2022-12-18T09:35:08;12.20;;;10.10;;
50631;SDS011;49583;45.590;-122.498;2022-12-18T09:37:18;14.20;;;9.20;;
50631;SDS011;49583;45.590;-122.498;2022-12-18T09:39:28;13.40;;;9.00;;
50631;SDS011;49583;45.590;-122.498;2022-12-18T09:41:41;15.00;;;8.90;;
50631;SDS011;49583;45.590;-122.498;2022-12-18T09:43:53;11.40;;;8.60;;
50631;SDS011;49583;45.590;-122.498;2022-12-18T09:46:07;11.90;;;9.00;;
50631;SDS011;49583;45.590;-122.498;2022-12-18T09:48:21;16.50;;;9.50;;
50631;SDS011;49583;45.590;-122.498;2022-12-18T09:50:34;12.00;;;9.00;;
50631;SDS011;49583;45.590;-122.498;2022-12-18T09:52:47;13.80;;;8.90;;
50631;SDS011;49583;45.590;-122.498;2022-12-18T09:55:01;11.10;;;9.00;;
50631;SDS011;49583;45.590;-122.498;2022-12-18T09:57:15;13.90;;;9.00;;
50631;SDS011;49583;45.590;-122.498;2022-12-18T09:59:27;10.30;;;8.50;;
50631;SDS011;49583;45.590;-122.498;2022-12-18T10:01:42;10.10;;;8.80;;
50631;SDS011;49583;45.590;-122.498;2022-12-18T10:03:52;10.80;;;8.90;;
50631;SDS011;49583;45.590;-122.498;2022-12-18T10:06:04;11.40;;;8.90;;
50631;SDS011;49583;45.590;-122.498;2022-12-18T10:08:21;13.90;;;9.10;;
50631;SDS011;49583;45.590;-122.498;2022-12-18T10:10:38;15.80;;;8.80;;
50631;SDS011;49583;45.590;-122.498;2022-12-18T10:12:55;12.90;;;8.90;;
50631;SDS011;49583;45.590;-122.498;2022-12-18T10:15:13;13.20;;;8.70;;
50631;SDS011;49583;45.590;-122.498;2022-12-18T10:17:33;13.00;;;8.70;;
50631;SDS011;49583;45.590;-122.498;2022-12-18T10:19:51;13.40;;;8.60;;
50631;SDS011;49583;45.590;-122.498;2022-12-18T10:22:04;14.10;;;9.40;;
50631;SDS011;49583;45.590;-122.498;2022-12-18T10:24:30;12.10;;;8.20;;
50631;SDS011;49583;45.590;-122.498;2022-12-18T10:26:46;10.60;;;8.80;;
50631;SDS011;49583;45.590;-122.498;2022-12-18T10:28:57;13.40;;;9.00;;
50631;SDS011;49583;45.590;-122.498;2022-12-18T10:31:14;8.90;;;7.80;;
50631;SDS011;49583;45.590;-122.498;2022-12-18T10:33:29;10.40;;;8.10;;
50631;SDS011;49583;45.590;-122.498;2022-12-18T10:35:40;13.00;;;8.00;;
50631;SDS011;49583;45.590;-122.498;2022-12-18T10:38:07;10.70;;;8.60;;
50631;SDS011;49583;45.590;-122.498;2022-12-18T10:40:31;13.70;;;8.50;;
50631;SDS011;49583;45.590;-122.498;2022-12-18T10:43:04;17.20;;;8.60;;
50631;SDS011;49583;45.590;-122.498;2022-12-18T10:45:18;12.90;;;8.80;;
50631;SDS011;49583;45.590;-122.498;2022-12-18T10:47:28;11.10;;;8.20;;
50631;SDS011;49583;45.590;-122.498;2022-12-18T10:49:37;14.90;;;8.80;;
50631;SDS011;49583;45.590;-122.498;2022-12-18T10:52:05;11.40;;;9.40;;
50631;SDS011;49583;45.590;-122.498;2022-12-18T10:54:22;10.60;;;8.70;;
50631;SDS011;49583;45.590;-122.498;2022-12-18T10:56:35;8.50;;;7.60;;
50631;SDS011;49583;45.590;-122.498;2022-12-18T10:58:46;11.20;;;8.60;;
50631;SDS011;49583;45.590;-122.498;2022-12-18T11:01:07;11.70;;;8.60;;
50631;SDS011;49583;45.590;-122.498;2022-12-18T11:03:30;10.70;;;9.00;;
50631;SDS011;49583;45.590;-122.498;2022-12-18T11:05:42;10.20;;;8.00;;
50631;SDS011;49583;45.590;-122.498;2022-12-18T11:07:52;9.90;;;7.40;;
50631;SDS011;49583;45.590;-122.498;2022-12-18T11:10:02;11.40;;;7.70;;
50631;SDS011;49583;45.590;-122.498;2022-12-18T11:12:23;13.80;;;7.80;;
50631;SDS011;49583;45.590;-122.498;2022-12-18T11:16:52;10.00;;;8.40;;
50631;SDS011;49583;45.590;-122.498;2022-12-18T11:19:28;13.10;;;8.90;;
50631;SDS011;49583;45.590;-122.498;2022-12-18T11:21:41;16.10;;;9.30;;
50631;SDS011;49583;45.590;-122.498;2022-12-18T11:23:52;11.20;;;8.10;;
50631;SDS011;49583;45.590;-122.498;2022-12-18T11:26:02;16.60;;;8.70;;
50631;SDS011;49583;45.590;-122.498;2022-12-18T11:28:26;13.20;;;8.60;;
50631;SDS011;49583;45.590;-122.498;2022-12-18T11:30:42;10.90;;;9.10;;
50631;SDS011;49583;45.590;-122.498;2022-12-18T11:32:52;10.20;;;8.30;;
50631;SDS011;49583;45.590;-122.498;2022-12-18T11:35:17;11.80;;;9.30;;
50631;SDS011;49583;45.590;-122.498;2022-12-18T11:37:29;11.80;;;9.00;;
50631;SDS011;49583;45.590;-122.498;2022-12-18T11:39:40;12.40;;;8.60;;
50631;SDS011;49583;45.590;-122.498;2022-12-18T11:41:54;15.30;;;9.30;;
50631;SDS011;49583;45.590;-122.498;2022-12-18T11:44:19;18.40;;;8.90;;
50631;SDS011;49583;45.590;-122.498;2022-12-18T11:46:34;13.20;;;8.70;;
50631;SDS011;49583;45.590;-122.498;2022-12-18T11:48:52;10.20;;;8.40;;
50631;SDS011;49583;45.590;-122.498;2022-12-18T11:51:08;13.60;;;8.90;;
50631;SDS011;49583;45.590;-122.498;2022-12-18T11:53:22;9.90;;;8.80;;
50631;SDS011;49583;45.590;-122.498;2022-12-18T11:55:36;13.60;;;9.00;;
50631;SDS011;49583;45.590;-122.498;2022-12-18T11:57:53;10.60;;;8.50;;
50631;SDS011;49583;45.590;-122.498;2022-12-18T12:00:12;9.70;;;8.70;;
50631;SDS011;49583;45.590;-122.498;2022-12-18T12:06:12;15.20;;;9.20;;
50631;SDS011;49583;45.590;-122.498;2022-12-18T12:08:30;16.10;;;9.70;;
50631;SDS011;49583;45.590;-122.498;2022-12-18T12:10:51;13.40;;;9.20;;
50631;SDS011;49583;45.590;-122.498;2022-12-18T12:13:14;10.40;;;8.90;;
50631;SDS011;49583;45.590;-122.498;2022-12-18T12:15:34;11.30;;;8.40;;
50631;SDS011;49583;45.590;-122.498;2022-12-18T12:17:53;12.70;;;9.30;;
50631;SDS011;49583;45.590;-122.498;2022-12-18T12:20:16;10.40;;;9.30;;
50631;SDS011;49583;45.590;-122.498;2022-12-18T12:22:38;9.50;;;8.40;;
50631;SDS011;49583;45.590;-122.498;2022-12-18T12:25:10;10.80;;;8.40;;
50631;SDS011;49583;45.590;-122.498;2022-12-18T12:27:36;9.80;;;8.70;;
50631;SDS011;49583;45.590;-122.498;2022-12-18T12:29:58;14.00;;;9.00;;
50631;SDS011;49583;45.590;-122.498;2022-12-18T12:32:20;13.90;;;9.20;;
50631;SDS011;49583;45.590;-122.498;2022-12-18T12:34:39;14.70;;;9.30;;
50631;SDS011;49583;45.590;-122.498;2022-12-18T12:37:10;11.70;;;9.40;;
50631;SDS011;49583;45.590;-122.498;2022-12-18T12:39:30;12.30;;;9.10;;
50631;SDS011;49583;45.590;-122.498;2022-12-18T12:41:43;12.70;;;8.60;;
50631;SDS011;49583;45.590;-122.498;2022-12-18T12:44:14;16.20;;;9.10;;